TimeCDT,TemperatureF,Dew PointF,Humidity,Sea Level PressureIn,VisibilityMPH,Wind Direction,Wind SpeedMPH,Gust SpeedMPH,PrecipitationIn,Events,Conditions,WindDirDegrees,DateUTC
12:52 AM,26.1,18.0,71,30.26,10.0,WNW,9.2,-,N/A,,Clear,300,2012-10-06 05:52:00
1:52 AM,30.0,21.0,69,30.26,10.0,WNW,9.2,-,N/A,,Overcast,290,2012-10-06 06:52:00
2:52 AM,30.9,21.0,67,30.25,10.0,WNW,9.2,-,N/A,,Mostly Cloudy,290,2012-10-06 07:52:00
3:52 AM,30.9,24.1,76,30.25,10.0,NW,11.5,-,N/A,,Clear,320,2012-10-06 08:52:00
4:52 AM,30.0,23.0,75,30.26,10.0,WNW,10.4,-,N/A,,Scattered Clouds,300,2012-10-06 09:52:00
5:02 AM,30.2,23.0,75,30.23,10.0,WNW,9.2,-,N/A,,Mostly Cloudy,300,2012-10-06 10:02:00
5:34 AM,28.4,23.0,80,30.23,10.0,NW,8.1,-,N/A,,Scattered Clouds,310,2012-10-06 10:34:00
5:52 AM,30.9,23.0,72,30.27,10.0,NW,10.4,-,N/A,,Partly Cloudy,320,2012-10-06 10:52:00
6:09 AM,32.0,24.8,75,30.24,10.0,NW,12.7,-,N/A,,Mostly Cloudy,320,2012-10-06 11:09:00
7:52 AM,34.0,26.1,73,30.31,10.0,NNW,12.7,-,N/A,,Overcast,340,2012-10-06 12:52:00
9:01 AM,35.6,26.6,70,30.29,10.0,NW,16.1,-,N/A,,Overcast,320,2012-10-06 14:01:00
9:52 AM,37.0,26.1,65,30.34,9.0,NNW,17.3,-,N/A,,Overcast,330,2012-10-06 14:52:00
10:03 AM,35.6,26.6,70,30.30,10.0,NNW,18.4,-,N/A,,Overcast,330,2012-10-06 15:03:00
10:52 AM,37.9,27.0,65,30.35,10.0,NNW,13.8,-,N/A,,Overcast,340,2012-10-06 15:52:00
11:14 AM,37.4,26.6,65,30.30,10.0,North,13.8,-,N/A,,Overcast,360,2012-10-06 16:14:00
11:27 AM,37.4,26.6,65,30.30,10.0,North,13.8,-,N/A,,Overcast,350,2012-10-06 16:27:00
11:52 AM,39.9,26.1,58,30.34,10.0,NNW,12.7,-,N/A,,Overcast,340,2012-10-06 16:52:00
12:52 PM,39.9,25.0,55,30.34,10.0,NNW,15.0,25.3,N/A,,Overcast,330,2012-10-06 17:52:00
1:52 PM,39.9,24.1,53,30.32,10.0,North,16.1,-,N/A,,Overcast,350,2012-10-06 18:52:00
2:52 PM,41.0,23.0,49,30.31,10.0,NNW,13.8,-,N/A,,Overcast,340,2012-10-06 19:52:00
3:52 PM,42.1,21.0,43,30.30,10.0,NW,10.4,19.6,N/A,,Overcast,310,2012-10-06 20:52:00
4:52 PM,43.0,21.9,43,30.29,10.0,WNW,12.7,-,N/A,,Overcast,300,2012-10-06 21:52:00
5:52 PM,41.0,21.0,45,30.29,10.0,NNW,10.4,-,N/A,,Mostly Cloudy,330,2012-10-06 22:52:00
6:52 PM,39.0,21.0,49,30.30,10.0,North,9.2,-,N/A,,Overcast,350,2012-10-06 23:52:00
7:52 PM,39.0,21.0,49,30.30,10.0,NNW,6.9,-,N/A,,Overcast,340,2012-10-07 00:52:00
8:52 PM,36.0,21.9,57,30.32,10.0,North,5.8,-,N/A,,Scattered Clouds,350,2012-10-07 01:52:00
9:52 PM,28.9,19.0,67,30.32,10.0,NW,4.6,-,N/A,,Clear,310,2012-10-07 02:52:00
10:52 PM,26.1,18.0,71,30.32,10.0,WNW,8.1,-,N/A,,Clear,300,2012-10-07 03:52:00
11:52 PM,24.1,16.0,71,30.31,10.0,WNW,9.2,-,N/A,,Clear,300,2012-10-07 04:52:00